sensor_id;sensor_type;location;lat;lon;timestamp;P1;durP1;ratioP1;P2;durP2;ratioP2
54835;SDS011;43486;43.574;1.476;2023-11-19T00:02:15;11.55;;;8.05;;
54835;SDS011;43486;43.574;1.476;2023-11-19T00:04:40;16.50;;;7.70;;
54835;SDS011;43486;43.574;1.476;2023-11-19T00:07:06;12.77;;;7.55;;
54835;SDS011;43486;43.574;1.476;2023-11-19T00:09:33;12.68;;;7.30;;
54835;SDS011;43486;43.574;1.476;2023-11-19T00:11:59;15.93;;;7.88;;
54835;SDS011;43486;43.574;1.476;2023-11-19T00:14:25;12.02;;;8.02;;
54835;SDS011;43486;43.574;1.476;2023-11-19T00:16:51;13.63;;;8.00;;
54835;SDS011;43486;43.574;1.476;2023-11-19T00:19:16;15.82;;;6.97;;
54835;SDS011;43486;43.574;1.476;2023-11-19T00:21:42;13.43;;;7.53;;
54835;SDS011;43486;43.574;1.476;2023-11-19T00:24:07;13.15;;;7.53;;
54835;SDS011;43486;43.574;1.476;2023-11-19T00:26:33;18.02;;;8.85;;
54835;SDS011;43486;43.574;1.476;2023-11-19T00:28:59;13.30;;;8.07;;
54835;SDS011;43486;43.574;1.476;2023-11-19T00:31:24;15.27;;;8.88;;
54835;SDS011;43486;43.574;1.476;2023-11-19T00:33:52;13.05;;;8.38;;
54835;SDS011;43486;43.574;1.476;2023-11-19T00:36:18;15.63;;;8.93;;
54835;SDS011;43486;43.574;1.476;2023-11-19T00:38:43;11.48;;;7.07;;
54835;SDS011;43486;43.574;1.476;2023-11-19T00:41:09;16.33;;;9.70;;
54835;SDS011;43486;43.574;1.476;2023-11-19T00:43:35;13.25;;;7.32;;
54835;SDS011;43486;43.574;1.476;2023-11-19T00:46:01;16.08;;;7.93;;
54835;SDS011;43486;43.574;1.476;2023-11-19T00:48:28;10.10;;;7.20;;
54835;SDS011;43486;43.574;1.476;2023-11-19T00:50:53;14.30;;;8.10;;
54835;SDS011;43486;43.574;1.476;2023-11-19T00:53:18;13.27;;;7.35;;
54835;SDS011;43486;43.574;1.476;2023-11-19T00:55:44;11.48;;;7.35;;
54835;SDS011;43486;43.574;1.476;2023-11-19T00:58:09;13.55;;;8.75;;
54835;SDS011;43486;43.574;1.476;2023-11-19T01:00:34;15.40;;;8.63;;
54835;SDS011;43486;43.574;1.476;2023-11-19T01:03:00;12.85;;;8.43;;
54835;SDS011;43486;43.574;1.476;2023-11-19T01:05:25;12.80;;;7.35;;
54835;SDS011;43486;43.574;1.476;2023-11-19T01:07:51;11.68;;;7.28;;
54835;SDS011;43486;43.574;1.476;2023-11-19T01:10:18;11.90;;;6.78;;
54835;SDS011;43486;43.574;1.476;2023-11-19T01:12:44;18.23;;;8.35;;
54835;SDS011;43486;43.574;1.476;2023-11-19T01:15:09;16.80;;;8.70;;
54835;SDS011;43486;43.574;1.476;2023-11-19T01:17:36;11.73;;;7.53;;
54835;SDS011;43486;43.574;1.476;2023-11-19T01:20:02;12.98;;;7.93;;
54835;SDS011;43486;43.574;1.476;2023-11-19T01:22:30;10.35;;;7.38;;
54835;SDS011;43486;43.574;1.476;2023-11-19T01:24:56;13.65;;;7.22;;
54835;SDS011;43486;43.574;1.476;2023-11-19T01:27:23;13.10;;;8.02;;
54835;SDS011;43486;43.574;1.476;2023-11-19T01:29:48;11.32;;;6.70;;
54835;SDS011;43486;43.574;1.476;2023-11-19T01:32:14;13.73;;;8.77;;
54835;SDS011;43486;43.574;1.476;2023-11-19T01:34:40;13.35;;;7.18;;
54835;SDS011;43486;43.574;1.476;2023-11-19T01:37:06;13.73;;;7.05;;
54835;SDS011;43486;43.574;1.476;2023-11-19T01:39:31;14.82;;;8.70;;
54835;SDS011;43486;43.574;1.476;2023-11-19T01:41:56;11.82;;;7.57;;
54835;SDS011;43486;43.574;1.476;2023-11-19T01:44:22;11.13;;;7.10;;
54835;SDS011;43486;43.574;1.476;2023-11-19T01:46:47;12.30;;;6.10;;
54835;SDS011;43486;43.574;1.476;2023-11-19T01:49:14;13.48;;;7.38;;
54835;SDS011;43486;43.574;1.476;2023-11-19T01:51:39;13.60;;;7.93;;
54835;SDS011;43486;43.574;1.476;2023-11-19T01:54:05;13.13;;;7.65;;
54835;SDS011;43486;43.574;1.476;2023-11-19T01:56:32;10.48;;;6.70;;
54835;SDS011;43486;43.574;1.476;2023-11-19T01:58:58;14.15;;;7.85;;
54835;SDS011;43486;43.574;1.476;2023-11-19T02:01:24;17.70;;;8.80;;
54835;SDS011;43486;43.574;1.476;2023-11-19T02:03:49;16.38;;;8.40;;
54835;SDS011;43486;43.574;1.476;2023-11-19T02:06:14;12.52;;;6.60;;
54835;SDS011;43486;43.574;1.476;2023-11-19T02:08:40;16.52;;;8.48;;
54835;SDS011;43486;43.574;1.476;2023-11-19T02:11:06;10.82;;;7.47;;
54835;SDS011;43486;43.574;1.476;2023-11-19T02:13:32;18.63;;;8.27;;
54835;SDS011;43486;43.574;1.476;2023-11-19T02:15:57;11.15;;;7.82;;
54835;SDS011;43486;43.574;1.476;2023-11-19T02:18:25;12.77;;;7.63;;
54835;SDS011;43486;43.574;1.476;2023-11-19T02:20:52;16.77;;;8.20;;
54835;SDS011;43486;43.574;1.476;2023-11-19T02:23:19;15.13;;;9.02;;
54835;SDS011;43486;43.574;1.476;2023-11-19T02:25:47;18.08;;;8.40;;
54835;SDS011;43486;43.574;1.476;2023-11-19T02:28:14;11.95;;;7.68;;
54835;SDS011;43486;43.574;1.476;2023-11-19T02:30:41;11.18;;;7.47;;
54835;SDS011;43486;43.574;1.476;2023-11-19T02:33:06;12.50;;;7.82;;
54835;SDS011;43486;43.574;1.476;2023-11-19T02:35:32;12.07;;;7.45;;
54835;SDS011;43486;43.574;1.476;2023-11-19T02:37:58;13.00;;;8.70;;
54835;SDS011;43486;43.574;1.476;2023-11-19T02:40:24;11.55;;;7.68;;
54835;SDS011;43486;43.574;1.476;2023-11-19T02:42:50;17.08;;;9.65;;
54835;SDS011;43486;43.574;1.476;2023-11-19T02:45:16;10.00;;;6.65;;
54835;SDS011;43486;43.574;1.476;2023-11-19T02:47:42;11.75;;;7.47;;
54835;SDS011;43486;43.574;1.476;2023-11-19T02:50:11;15.20;;;7.47;;
54835;SDS011;43486;43.574;1.476;2023-11-19T02:52:43;14.25;;;7.18;;
54835;SDS011;43486;43.574;1.476;2023-11-19T02:55:09;11.68;;;6.93;;
54835;SDS011;43486;43.574;1.476;2023-11-19T02:57:37;13.13;;;8.25;;
54835;SDS011;43486;43.574;1.476;2023-11-19T03:00:11;10.32;;;6.82;;
54835;SDS011;43486;43.574;1.476;2023-11-19T03:02:40;14.90;;;7.90;;
54835;SDS011;43486;43.574;1.476;2023-11-19T03:05:13;10.70;;;7.50;;
54835;SDS011;43486;43.574;1.476;2023-11-19T03:07:43;14.50;;;8.50;;
54835;SDS011;43486;43.574;1.476;2023-11-19T03:10:09;10.68;;;6.40;;
54835;SDS011;43486;43.574;1.476;2023-11-19T03:12:38;10.45;;;6.40;;
54835;SDS011;43486;43.574;1.476;2023-11-19T03:15:04;9.23;;;6.93;;
54835;SDS011;43486;43.574;1.476;2023-11-19T03:17:30;12.48;;;7.35;;
54835;SDS011;43486;43.574;1.476;2023-11-19T03:19:55;12.43;;;6.97;;
54835;SDS011;43486;43.574;1.476;2023-11-19T03:22:20;17.00;;;8.18;;
54835;SDS011;43486;43.574;1.476;2023-11-19T03:24:46;12.27;;;6.97;;
54835;SDS011;43486;43.574;1.476;2023-11-19T03:27:11;10.18;;;6.63;;
54835;SDS011;43486;43.574;1.476;2023-11-19T03:29:37;10.75;;;7.95;;
54835;SDS011;43486;43.574;1.476;2023-11-19T03:32:03;13.45;;;8.15;;
54835;SDS011;43486;43.574;1.476;2023-11-19T03:34:29;10.50;;;6.93;;
54835;SDS011;43486;43.574;1.476;2023-11-19T03:36:55;16.83;;;7.88;;
54835;SDS011;43486;43.574;1.476;2023-11-19T03:39:20;11.93;;;7.28;;
54835;SDS011;43486;43.574;1.476;2023-11-19T03:41:49;10.80;;;7.03;;
54835;SDS011;43486;43.574;1.476;2023-11-19T03:44:15;12.05;;;7.60;;
54835;SDS011;43486;43.574;1.476;2023-11-19T03:46:40;10.50;;;6.72;;
54835;SDS011;43486;43.574;1.476;2023-11-19T03:49:06;11.35;;;7.45;;
54835;SDS011;43486;43.574;1.476;2023-11-19T03:51:32;11.38;;;8.15;;
54835;SDS011;43486;43.574;1.476;2023-11-19T03:53:57;11.52;;;7.20;;
54835;SDS011;43486;43.574;1.476;2023-11-19T03:56:24;14.15;;;7.30;;
54835;SDS011;43486;43.574;1.476;2023-11-19T03:58:49;8.88;;;6.40;;
54835;SDS011;43486;43.574;1.476;2023-11-19T04:01:14;14.30;;;6.53;;
54835;SDS011;43486;43.574;1.476;2023-11-19T04:03:40;10.48;;;6.20;;
54835;SDS011;43486;43.574;1.476;2023-11-19T04:06:05;13.68;;;7.90;;
54835;SDS011;43486;43.574;1.476;2023-11-19T04:08:31;10.20;;;6.82;;
54835;SDS011;43486;43.574;1.476;2023-11-19T04:10:56;12.48;;;7.82;;
54835;SDS011;43486;43.574;1.476;2023-11-19T04:13:22;12.80;;;6.88;;
54835;SDS011;43486;43.574;1.476;2023-11-19T04:15:49;11.20;;;7.10;;
54835;SDS011;43486;43.574;1.476;2023-11-19T04:18:15;10.57;;;6.93;;
54835;SDS011;43486;43.574;1.476;2023-11-19T04:20:40;11.25;;;6.82;;
54835;SDS011;43486;43.574;1.476;2023-11-19T04:23:07;12.05;;;7.53;;
54835;SDS011;43486;43.574;1.476;2023-11-19T04:25:32;11.52;;;6.57;;
54835;SDS011;43486;43.574;1.476;2023-11-19T04:27:58;14.23;;;8.73;;
54835;SDS011;43486;43.574;1.476;2023-11-19T04:30:23;12.05;;;6.28;;
54835;SDS011;43486;43.574;1.476;2023-11-19T04:32:49;12.90;;;7.28;;
54835;SDS011;43486;43.574;1.476;2023-11-19T04:35:14;14.40;;;8.38;;
54835;SDS011;43486;43.574;1.476;2023-11-19T04:37:39;11.07;;;6.40;;
54835;SDS011;43486;43.574;1.476;2023-11-19T04:40:06;13.70;;;8.07;;
54835;SDS011;43486;43.574;1.476;2023-11-19T04:42:32;12.00;;;7.18;;
54835;SDS011;43486;43.574;1.476;2023-11-19T04:44:57;12.80;;;7.15;;
54835;SDS011;43486;43.574;1.476;2023-11-19T04:47:23;11.60;;;7.07;;
54835;SDS011;43486;43.574;1.476;2023-11-19T04:49:48;13.73;;;7.53;;
54835;SDS011;43486;43.574;1.476;2023-11-19T04:52:13;10.48;;;6.25;;
54835;SDS011;43486;43.574;1.476;2023-11-19T04:54:42;18.15;;;7.13;;
54835;SDS011;43486;43.574;1.476;2023-11-19T04:57:08;14.98;;;6.93;;
54835;SDS011;43486;43.574;1.476;2023-11-19T04:59:36;12.88;;;7.70;;
54835;SDS011;43486;43.574;1.476;2023-11-19T05:02:01;11.77;;;6.55;;
54835;SDS011;43486;43.574;1.476;2023-11-19T05:04:27;10.35;;;6.75;;
54835;SDS011;43486;43.574;1.476;2023-11-19T05:06:52;10.52;;;6.53;;
54835;SDS011;43486;43.574;1.476;2023-11-19T05:09:18;14.60;;;8.38;;
54835;SDS011;43486;43.574;1.476;2023-11-19T05:11:43;10.15;;;6.45;;
54835;SDS011;43486;43.574;1.476;2023-11-19T05:14:09;12.75;;;6.13;;
54835;SDS011;43486;43.574;1.476;2023-11-19T05:16:34;10.57;;;6.72;;
54835;SDS011;43486;43.574;1.476;2023-11-19T05:19:00;11.25;;;5.70;;
54835;SDS011;43486;43.574;1.476;2023-11-19T05:21:25;12.57;;;6.68;;
54835;SDS011;43486;43.574;1.476;2023-11-19T05:23:51;9.60;;;6.55;;
54835;SDS011;43486;43.574;1.476;2023-11-19T05:26:17;11.80;;;6.82;;
54835;SDS011;43486;43.574;1.476;2023-11-19T05:28:46;9.68;;;6.00;;
54835;SDS011;43486;43.574;1.476;2023-11-19T05:31:12;13.77;;;7.40;;
54835;SDS011;43486;43.574;1.476;2023-11-19T05:33:37;9.20;;;6.20;;
54835;SDS011;43486;43.574;1.476;2023-11-19T05:36:02;10.73;;;5.72;;
54835;SDS011;43486;43.574;1.476;2023-11-19T05:38:29;10.05;;;5.32;;
54835;SDS011;43486;43.574;1.476;2023-11-19T05:40:54;9.77;;;6.47;;
54835;SDS011;43486;43.574;1.476;2023-11-19T05:43:20;12.77;;;7.97;;
54835;SDS011;43486;43.574;1.476;2023-11-19T05:45:46;9.18;;;6.43;;
54835;SDS011;43486;43.574;1.476;2023-11-19T05:48:11;12.30;;;6.95;;
54835;SDS011;43486;43.574;1.476;2023-11-19T05:50:37;10.50;;;6.30;;
54835;SDS011;43486;43.574;1.476;2023-11-19T05:53:02;13.88;;;6.90;;
54835;SDS011;43486;43.574;1.476;2023-11-19T05:55:30;12.85;;;7.10;;
54835;SDS011;43486;43.574;1.476;2023-11-19T05:57:56;9.70;;;6.55;;
54835;SDS011;43486;43.574;1.476;2023-11-19T06:00:21;9.93;;;6.05;;
54835;SDS011;43486;43.574;1.476;2023-11-19T06:02:47;13.77;;;6.20;;
54835;SDS011;43486;43.574;1.476;2023-11-19T06:05:12;11.30;;;6.78;;
54835;SDS011;43486;43.574;1.476;2023-11-19T06:07:37;9.20;;;5.82;;
54835;SDS011;43486;43.574;1.476;2023-11-19T06:10:04;11.73;;;6.00;;
54835;SDS011;43486;43.574;1.476;2023-11-19T06:12:31;8.38;;;5.40;;
54835;SDS011;43486;43.574;1.476;2023-11-19T06:14:59;11.57;;;5.65;;
54835;SDS011;43486;43.574;1.476;2023-11-19T06:17:25;12.18;;;6.40;;
54835;SDS011;43486;43.574;1.476;2023-11-19T06:19:50;9.57;;;5.47;;
54835;SDS011;43486;43.574;1.476;2023-11-19T06:22:16;11.82;;;7.55;;
54835;SDS011;43486;43.574;1.476;2023-11-19T06:24:41;9.93;;;5.47;;
54835;SDS011;43486;43.574;1.476;2023-11-19T06:27:07;9.40;;;5.53;;
54835;SDS011;43486;43.574;1.476;2023-11-19T06:29:33;10.30;;;5.28;;
54835;SDS011;43486;43.574;1.476;2023-11-19T06:31:58;12.40;;;6.03;;
54835;SDS011;43486;43.574;1.476;2023-11-19T06:34:23;10.55;;;6.07;;
54835;SDS011;43486;43.574;1.476;2023-11-19T06:36:49;9.93;;;5.50;;
54835;SDS011;43486;43.574;1.476;2023-11-19T06:39:14;11.60;;;7.13;;
54835;SDS011;43486;43.574;1.476;2023-11-19T06:41:44;14.73;;;8.25;;
54835;SDS011;43486;43.574;1.476;2023-11-19T06:44:10;9.38;;;6.15;;
54835;SDS011;43486;43.574;1.476;2023-11-19T06:46:35;9.35;;;5.57;;
54835;SDS011;43486;43.574;1.476;2023-11-19T06:49:01;11.05;;;6.90;;
54835;SDS011;43486;43.574;1.476;2023-11-19T06:51:26;8.43;;;6.10;;
54835;SDS011;43486;43.574;1.476;2023-11-19T06:53:52;9.07;;;5.53;;
54835;SDS011;43486;43.574;1.476;2023-11-19T06:56:21;13.30;;;6.07;;
54835;SDS011;43486;43.574;1.476;2023-11-19T06:58:47;11.07;;;7.05;;
54835;SDS011;43486;43.574;1.476;2023-11-19T07:01:13;10.35;;;6.30;;
54835;SDS011;43486;43.574;1.476;2023-11-19T07:03:40;12.60;;;6.65;;
54835;SDS011;43486;43.574;1.476;2023-11-19T07:06:05;13.40;;;7.93;;
54835;SDS011;43486;43.574;1.476;2023-11-19T07:08:31;10.70;;;6.00;;
54835;SDS011;43486;43.574;1.476;2023-11-19T07:10:56;9.75;;;5.82;;
54835;SDS011;43486;43.574;1.476;2023-11-19T07:13:21;10.40;;;5.82;;
54835;SDS011;43486;43.574;1.476;2023-11-19T07:15:47;10.38;;;6.43;;
54835;SDS011;43486;43.574;1.476;2023-11-19T07:18:12;9.43;;;5.40;;
54835;SDS011;43486;43.574;1.476;2023-11-19T07:20:39;8.32;;;6.22;;
54835;SDS011;43486;43.574;1.476;2023-11-19T07:23:05;12.27;;;6.88;;
54835;SDS011;43486;43.574;1.476;2023-11-19T07:25:31;15.32;;;6.63;;
54835;SDS011;43486;43.574;1.476;2023-11-19T07:27:56;9.82;;;5.82;;
54835;SDS011;43486;43.574;1.476;2023-11-19T07:30:22;10.60;;;6.63;;
54835;SDS011;43486;43.574;1.476;2023-11-19T07:32:47;8.95;;;5.68;;
54835;SDS011;43486;43.574;1.476;2023-11-19T07:35:13;14.10;;;6.50;;
54835;SDS011;43486;43.574;1.476;2023-11-19T07:37:40;10.60;;;6.82;;
54835;SDS011;43486;43.574;1.476;2023-11-19T07:40:06;11.15;;;6.10;;
54835;SDS011;43486;43.574;1.476;2023-11-19T07:42:32;10.45;;;6.63;;
54835;SDS011;43486;43.574;1.476;2023-11-19T07:44:57;13.07;;;6.20;;
54835;SDS011;43486;43.574;1.476;2023-11-19T07:47:23;9.57;;;5.38;;
54835;SDS011;43486;43.574;1.476;2023-11-19T07:49:48;9.90;;;4.95;;
54835;SDS011;43486;43.574;1.476;2023-11-19T07:52:15;8.45;;;5.25;;
54835;SDS011;43486;43.574;1.476;2023-11-19T07:54:40;7.70;;;5.47;;
54835;SDS011;43486;43.574;1.476;2023-11-19T07:57:05;12.02;;;5.47;;
54835;SDS011;43486;43.574;1.476;2023-11-19T07:59:31;9.38;;;6.30;;
54835;SDS011;43486;43.574;1.476;2023-11-19T08:01:56;9.82;;;4.63;;
54835;SDS011;43486;43.574;1.476;2023-11-19T08:04:22;9.85;;;6.28;;
54835;SDS011;43486;43.574;1.476;2023-11-19T08:06:48;11.43;;;5.47;;
54835;SDS011;43486;43.574;1.476;2023-11-19T08:09:13;10.30;;;5.80;;
54835;SDS011;43486;43.574;1.476;2023-11-19T08:11:40;9.13;;;6.65;;
54835;SDS011;43486;43.574;1.476;2023-11-19T08:14:06;9.07;;;5.18;;
54835;SDS011;43486;43.574;1.476;2023-11-19T08:16:31;8.73;;;5.97;;
54835;SDS011;43486;43.574;1.476;2023-11-19T08:18:57;9.65;;;5.05;;
54835;SDS011;43486;43.574;1.476;2023-11-19T08:21:23;7.38;;;4.82;;
54835;SDS011;43486;43.574;1.476;2023-11-19T08:23:48;8.48;;;4.88;;
54835;SDS011;43486;43.574;1.476;2023-11-19T08:26:14;10.73;;;5.40;;
54835;SDS011;43486;43.574;1.476;2023-11-19T08:28:40;12.68;;;4.18;;
54835;SDS011;43486;43.574;1.476;2023-11-19T08:31:05;10.25;;;4.88;;
54835;SDS011;43486;43.574;1.476;2023-11-19T08:33:31;12.25;;;5.30;;
54835;SDS011;43486;43.574;1.476;2023-11-19T08:35:57;10.35;;;4.80;;
54835;SDS011;43486;43.574;1.476;2023-11-19T08:38:23;9.45;;;5.88;;
54835;SDS011;43486;43.574;1.476;2023-11-19T08:40:49;7.75;;;4.78;;
54835;SDS011;43486;43.574;1.476;2023-11-19T08:43:14;10.18;;;4.75;;
54835;SDS011;43486;43.574;1.476;2023-11-19T08:45:39;8.75;;;4.95;;
54835;SDS011;43486;43.574;1.476;2023-11-19T08:48:05;7.32;;;4.55;;
54835;SDS011;43486;43.574;1.476;2023-11-19T08:50:30;7.82;;;5.22;;
54835;SDS011;43486;43.574;1.476;2023-11-19T08:52:56;7.90;;;4.90;;
54835;SDS011;43486;43.574;1.476;2023-11-19T08:55:21;11.25;;;6.22;;
54835;SDS011;43486;43.574;1.476;2023-11-19T08:57:46;10.50;;;5.90;;
54835;SDS011;43486;43.574;1.476;2023-11-19T09:00:12;8.25;;;4.93;;
54835;SDS011;43486;43.574;1.476;2023-11-19T09:02:39;8.35;;;4.75;;
54835;SDS011;43486;43.574;1.476;2023-11-19T09:05:05;8.52;;;5.20;;
54835;SDS011;43486;43.574;1.476;2023-11-19T09:07:32;8.57;;;4.60;;
54835;SDS011;43486;43.574;1.476;2023-11-19T09:09:57;8.73;;;5.22;;
54835;SDS011;43486;43.574;1.476;2023-11-19T09:12:23;8.07;;;5.07;;
54835;SDS011;43486;43.574;1.476;2023-11-19T09:14:48;6.70;;;4.82;;
54835;SDS011;43486;43.574;1.476;2023-11-19T09:17:14;11.82;;;5.15;;
54835;SDS011;43486;43.574;1.476;2023-11-19T09:19:40;7.13;;;4.75;;
54835;SDS011;43486;43.574;1.476;2023-11-19T09:22:05;8.73;;;4.22;;
54835;SDS011;43486;43.574;1.476;2023-11-19T09:24:31;11.07;;;5.47;;
54835;SDS011;43486;43.574;1.476;2023-11-19T09:26:56;9.77;;;5.18;;
54835;SDS011;43486;43.574;1.476;2023-11-19T09:29:22;11.75;;;4.93;;
54835;SDS011;43486;43.574;1.476;2023-11-19T09:31:48;9.25;;;5.38;;
54835;SDS011;43486;43.574;1.476;2023-11-19T09:34:14;12.32;;;4.78;;
54835;SDS011;43486;43.574;1.476;2023-11-19T09:36:39;11.48;;;4.78;;
54835;SDS011;43486;43.574;1.476;2023-11-19T09:39:09;9.88;;;4.65;;
54835;SDS011;43486;43.574;1.476;2023-11-19T09:41:39;9.73;;;5.78;;
54835;SDS011;43486;43.574;1.476;2023-11-19T09:44:06;7.63;;;4.40;;
54835;SDS011;43486;43.574;1.476;2023-11-19T09:46:31;8.52;;;4.55;;
54835;SDS011;43486;43.574;1.476;2023-11-19T09:48:57;8.80;;;5.22;;
54835;SDS011;43486;43.574;1.476;2023-11-19T09:51:24;9.75;;;4.70;;
54835;SDS011;43486;43.574;1.476;2023-11-19T09:53:49;9.32;;;5.03;;
54835;SDS011;43486;43.574;1.476;2023-11-19T09:56:15;10.07;;;5.07;;
54835;SDS011;43486;43.574;1.476;2023-11-19T09:58:42;7.40;;;4.50;;
54835;SDS011;43486;43.574;1.476;2023-11-19T10:01:07;6.93;;;3.90;;
54835;SDS011;43486;43.574;1.476;2023-11-19T10:03:35;7.95;;;4.53;;
54835;SDS011;43486;43.574;1.476;2023-11-19T10:06:06;7.13;;;5.13;;
54835;SDS011;43486;43.574;1.476;2023-11-19T10:08:32;10.05;;;4.95;;
54835;SDS011;43486;43.574;1.476;2023-11-19T10:10:58;10.98;;;5.05;;
54835;SDS011;43486;43.574;1.476;2023-11-19T10:13:30;9.07;;;5.05;;
54835;SDS011;43486;43.574;1.476;2023-11-19T10:15:56;8.80;;;4.90;;
54835;SDS011;43486;43.574;1.476;2023-11-19T10:18:28;7.97;;;4.95;;
54835;SDS011;43486;43.574;1.476;2023-11-19T10:20:53;10.80;;;4.70;;
54835;SDS011;43486;43.574;1.476;2023-11-19T10:23:20;8.07;;;4.38;;
54835;SDS011;43486;43.574;1.476;2023-11-19T10:25:46;6.57;;;4.18;;
54835;SDS011;43486;43.574;1.476;2023-11-19T10:28:11;7.22;;;4.55;;
54835;SDS011;43486;43.574;1.476;2023-11-19T10:30:41;6.78;;;4.72;;
54835;SDS011;43486;43.574;1.476;2023-11-19T10:35:57;7.28;;;4.55;;
54835;SDS011;43486;43.574;1.476;2023-11-19T10:38:22;7.82;;;4.40;;
54835;SDS011;43486;43.574;1.476;2023-11-19T10:40:49;8.93;;;4.30;;
54835;SDS011;43486;43.574;1.476;2023-11-19T10:43:16;9.25;;;5.03;;
54835;SDS011;43486;43.574;1.476;2023-11-19T10:45:42;7.28;;;4.28;;
54835;SDS011;43486;43.574;1.476;2023-11-19T10:48:07;9.70;;;4.38;;
54835;SDS011;43486;43.574;1.476;2023-11-19T10:50:36;7.22;;;4.85;;
54835;SDS011;43486;43.574;1.476;2023-11-19T10:53:03;9.02;;;4.68;;
54835;SDS011;43486;43.574;1.476;2023-11-19T10:55:30;10.25;;;4.55;;
54835;SDS011;43486;43.574;1.476;2023-11-19T10:57:58;6.65;;;4.25;;
54835;SDS011;43486;43.574;1.476;2023-11-19T11:00:28;7.35;;;4.32;;
54835;SDS011;43486;43.574;1.476;2023-11-19T11:02:56;6.78;;;4.20;;
54835;SDS011;43486;43.574;1.476;2023-11-19T11:05:26;7.32;;;4.38;;
54835;SDS011;43486;43.574;1.476;2023-11-19T11:07:52;7.28;;;4.03;;
54835;SDS011;43486;43.574;1.476;2023-11-19T11:10:17;10.25;;;4.72;;
54835;SDS011;43486;43.574;1.476;2023-11-19T11:12:43;7.03;;;3.83;;
54835;SDS011;43486;43.574;1.476;2023-11-19T11:15:08;6.53;;;3.83;;
54835;SDS011;43486;43.574;1.476;2023-11-19T11:17:37;13.45;;;4.57;;
54835;SDS011;43486;43.574;1.476;2023-11-19T11:20:04;9.45;;;4.18;;
54835;SDS011;43486;43.574;1.476;2023-11-19T11:22:33;9.40;;;5.53;;
54835;SDS011;43486;43.574;1.476;2023-11-19T11:36:27;5.75;;;3.17;;
54835;SDS011;43486;43.574;1.476;2023-11-19T11:38:54;9.10;;;3.45;;
54835;SDS011;43486;43.574;1.476;2023-11-19T11:41:23;7.78;;;3.75;;
54835;SDS011;43486;43.574;1.476;2023-11-19T11:43:53;7.97;;;4.85;;
54835;SDS011;43486;43.574;1.476;2023-11-19T11:49:03;7.78;;;3.85;;
54835;SDS011;43486;43.574;1.476;2023-11-19T11:54:31;10.25;;;4.18;;
54835;SDS011;43486;43.574;1.476;2023-11-19T11:57:11;6.60;;;4.00;;
54835;SDS011;43486;43.574;1.476;2023-11-19T12:02:10;8.73;;;4.95;;
54835;SDS011;43486;43.574;1.476;2023-11-19T12:04:36;7.88;;;3.83;;
54835;SDS011;43486;43.574;1.476;2023-11-19T12:07:06;6.70;;;3.63;;
54835;SDS011;43486;43.574;1.476;2023-11-19T12:09:32;11.07;;;4.20;;
54835;SDS011;43486;43.574;1.476;2023-11-19T12:12:12;6.03;;;3.13;;
54835;SDS011;43486;43.574;1.476;2023-11-19T12:20:04;7.90;;;4.10;;
54835;SDS011;43486;43.574;1.476;2023-11-19T12:22:34;9.02;;;4.75;;
54835;SDS011;43486;43.574;1.476;2023-11-19T12:25:04;5.30;;;2.92;;
54835;SDS011;43486;43.574;1.476;2023-11-19T12:27:31;5.50;;;3.42;;
54835;SDS011;43486;43.574;1.476;2023-11-19T12:29:58;8.43;;;4.32;;
54835;SDS011;43486;43.574;1.476;2023-11-19T12:32:24;7.75;;;3.95;;
54835;SDS011;43486;43.574;1.476;2023-11-19T12:34:50;6.38;;;3.35;;
54835;SDS011;43486;43.574;1.476;2023-11-19T12:37:15;6.03;;;3.22;;
54835;SDS011;43486;43.574;1.476;2023-11-19T12:39:40;5.65;;;3.00;;
54835;SDS011;43486;43.574;1.476;2023-11-19T12:42:06;6.80;;;2.95;;
54835;SDS011;43486;43.574;1.476;2023-11-19T12:44:31;6.88;;;3.15;;
54835;SDS011;43486;43.574;1.476;2023-11-19T12:47:03;7.80;;;3.50;;
54835;SDS011;43486;43.574;1.476;2023-11-19T12:49:29;6.57;;;3.50;;
54835;SDS011;43486;43.574;1.476;2023-11-19T12:51:55;6.53;;;3.00;;
54835;SDS011;43486;43.574;1.476;2023-11-19T12:54:31;7.07;;;3.33;;
54835;SDS011;43486;43.574;1.476;2023-11-19T12:56:57;9.82;;;4.07;;
54835;SDS011;43486;43.574;1.476;2023-11-19T12:59:23;5.10;;;2.70;;
54835;SDS011;43486;43.574;1.476;2023-11-19T13:01:55;12.65;;;3.60;;
54835;SDS011;43486;43.574;1.476;2023-11-19T13:04:21;5.80;;;3.13;;
54835;SDS011;43486;43.574;1.476;2023-11-19T13:06:47;6.40;;;3.22;;
54835;SDS011;43486;43.574;1.476;2023-11-19T13:09:28;6.75;;;3.05;;
54835;SDS011;43486;43.574;1.476;2023-11-19T13:11:54;5.40;;;3.30;;
54835;SDS011;43486;43.574;1.476;2023-11-19T13:14:21;7.05;;;3.78;;
54835;SDS011;43486;43.574;1.476;2023-11-19T13:16:46;7.30;;;3.10;;
54835;SDS011;43486;43.574;1.476;2023-11-19T13:19:12;7.80;;;2.83;;
54835;SDS011;43486;43.574;1.476;2023-11-19T13:21:38;5.45;;;3.13;;
54835;SDS011;43486;43.574;1.476;2023-11-19T13:24:05;7.18;;;3.85;;
54835;SDS011;43486;43.574;1.476;2023-11-19T13:26:31;14.40;;;4.32;;
54835;SDS011;43486;43.574;1.476;2023-11-19T13:28:56;5.88;;;3.20;;
54835;SDS011;43486;43.574;1.476;2023-11-19T13:31:22;8.00;;;3.90;;
54835;SDS011;43486;43.574;1.476;2023-11-19T13:33:47;7.05;;;3.40;;
54835;SDS011;43486;43.574;1.476;2023-11-19T13:36:13;9.15;;;4.47;;
54835;SDS011;43486;43.574;1.476;2023-11-19T13:38:38;6.95;;;3.13;;
54835;SDS011;43486;43.574;1.476;2023-11-19T13:41:06;7.80;;;3.65;;
54835;SDS011;43486;43.574;1.476;2023-11-19T13:43:31;5.78;;;3.53;;
54835;SDS011;43486;43.574;1.476;2023-11-19T13:45:57;7.13;;;4.10;;
54835;SDS011;43486;43.574;1.476;2023-11-19T13:48:26;6.25;;;3.67;;
54835;SDS011;43486;43.574;1.476;2023-11-19T13:50:52;8.02;;;3.55;;
54835;SDS011;43486;43.574;1.476;2023-11-19T13:53:17;6.15;;;3.28;;
54835;SDS011;43486;43.574;1.476;2023-11-19T13:55:43;6.57;;;3.60;;
54835;SDS011;43486;43.574;1.476;2023-11-19T13:58:09;9.23;;;3.80;;
54835;SDS011;43486;43.574;1.476;2023-11-19T14:00:35;6.95;;;3.58;;
54835;SDS011;43486;43.574;1.476;2023-11-19T14:03:00;6.97;;;3.25;;
54835;SDS011;43486;43.574;1.476;2023-11-19T14:05:26;8.32;;;3.50;;
54835;SDS011;43486;43.574;1.476;2023-11-19T14:07:51;5.32;;;3.22;;
54835;SDS011;43486;43.574;1.476;2023-11-19T14:10:17;7.43;;;3.28;;
54835;SDS011;43486;43.574;1.476;2023-11-19T14:12:42;6.05;;;2.97;;
54835;SDS011;43486;43.574;1.476;2023-11-19T14:15:09;7.45;;;3.67;;
54835;SDS011;43486;43.574;1.476;2023-11-19T14:17:34;7.57;;;3.83;;
54835;SDS011;43486;43.574;1.476;2023-11-19T14:20:03;10.18;;;3.85;;
54835;SDS011;43486;43.574;1.476;2023-11-19T14:22:41;6.80;;;3.83;;
54835;SDS011;43486;43.574;1.476;2023-11-19T14:25:08;5.82;;;3.05;;
54835;SDS011;43486;43.574;1.476;2023-11-19T14:27:36;7.10;;;3.03;;
54835;SDS011;43486;43.574;1.476;2023-11-19T14:30:05;8.20;;;3.65;;
54835;SDS011;43486;43.574;1.476;2023-11-19T14:32:31;5.90;;;3.22;;
54835;SDS011;43486;43.574;1.476;2023-11-19T14:34:57;4.03;;;2.70;;
54835;SDS011;43486;43.574;1.476;2023-11-19T14:37:22;7.57;;;3.35;;
54835;SDS011;43486;43.574;1.476;2023-11-19T14:39:48;8.25;;;3.03;;
54835;SDS011;43486;43.574;1.476;2023-11-19T14:42:15;6.90;;;3.88;;
54835;SDS011;43486;43.574;1.476;2023-11-19T14:44:41;5.63;;;3.47;;
54835;SDS011;43486;43.574;1.476;2023-11-19T14:47:06;6.82;;;3.08;;
54835;SDS011;43486;43.574;1.476;2023-11-19T14:49:32;6.93;;;3.50;;
54835;SDS011;43486;43.574;1.476;2023-11-19T14:51:59;7.93;;;3.72;;
54835;SDS011;43486;43.574;1.476;2023-11-19T14:54:25;7.63;;;3.08;;
54835;SDS011;43486;43.574;1.476;2023-11-19T14:56:51;8.27;;;3.17;;
54835;SDS011;43486;43.574;1.476;2023-11-19T14:59:17;8.85;;;3.63;;
54835;SDS011;43486;43.574;1.476;2023-11-19T15:01:44;6.15;;;3.10;;
54835;SDS011;43486;43.574;1.476;2023-11-19T15:04:10;7.15;;;3.10;;